Benedict, North Dakota
Current Conditions -  °F | °C
As of 1:18 AM on Wednesday 26 Nov 2014 (Local Time) from KMOT Reporting Station
Haze Haze  
Wind Chill: -8°   Ceiling: 10000
Heat Index:   Visibility: 6mi
Dew Point:   Wind: 7mph
Humidity: 84%   Direction: 340°NNW
Pressure: 30.21"   Gusts: NA
Location:  47.83°N, 101.08°W
Report Text: KMOT 260718Z AUTO 34006KT 6SM BR SCT023 SCT048 OVC100 M16/M18 A3021 RMK AO2 T11561178
Loading
Personal Weather Stations






























Interactive Weather Map New forecast layout! Learn more

10-Day Weather Forecast

Advertisements
Track Severe Weather on mobile